Racine, WV

7:56 AM EST on February 10, 2016 (GMT -0500)
Casey Fork | | Change Station
CLOSE
Current Station
Personal Weather Station
Location: Ashford, WV
Elevation: 787 ft
Nearby Weather Stations
Active Advisory: Winter Weather Advisory Active Notice: Local Storm Report

Elev 787 ft 38.18 °N, 81.68 °W | Updated 2 minutes ago

Snow
Snow
17.8 °F
Feels Like 9 °F
N
6.8
Wind Variable Wind from ESE

Today
High -- | Low -- °F
--% Chance of Precip.
Yesterday
High -- | Low -- °F
Precip. -- in
Pressure 29.99 in
Visibility 4.0 miles
Clouds Scattered Clouds 1400 ft
Mostly Cloudy 2300 ft
Mostly Cloudy 4200 ft
Windchill 9 °F
Dew Point 15 °F
Humidity 90%
Rainfall 0.00 in
Snow Depth Not available.
7:23 AM 5:59 PM
Waxing Crescent, 5% visible
METAR KCRW 101254Z 29009G14KT 4SM -SN SCT014 BKN023 BKN042 M08/M11 A2995 RMK AO2 SLP153 P0000 T10781106
Pressure 29.99 in
Visibility 4.0 miles
Clouds Scattered Clouds 1400 ft
Mostly Cloudy 2300 ft
Mostly Cloudy 4200 ft
Windchill 9 °F
Dew Point 15 °F
Humidity 90%
Rainfall 0.00 in
Snow Depth Not available.
7:23 AM 5:59 PM
Waxing Crescent, 5% visible
METAR KCRW 101254Z 29009G14KT 4SM -SN SCT014 BKN023 BKN042 M08/M11 A2995 RMK AO2 SLP153 P0000 T10781106

10-Day Weather Forecast

Almanac

Astronomy

Feb. 10, 2016 Rise Set
Actual Time
Civil Twilight
Nautical Twilight
Astronomical Twilight
Moon
Length of Visible Light
Length of Day
Tomorrow will be .
, % of the Moon is Illuminated

Today's Extremes

State Highs State Lows

Community

WunderPhotos

Upload Photos

1,891,837 photos uploaded!

WunderBlog® & News

Nearby

Air Quality

  Air Quality AQ Index Pollutant
Not available.

Snow Depth

Station Depth Elevation

Earthquake Activity

City Distance Mag. Time & Date
Minimum magnitude displayed is 2.5.

Coastal Water Temperatures

Place Temperature

Stations

Nearby Weather Stations

Station Location Temp. Windchill Dew Point Humidity Wind Precip. Elev Updated Type
                   

Watches & Warnings

Winter Weather Advisory
Issued: 4:38 AM EST Feb. 10, 2016 – National Weather Service

... Winter Weather Advisory now in effect until 6 PM EST this
evening...

* hazard types... snow showers of varying intensity.

* Total snow accumulations from Monday night through today... 2 to
5 inches in southern Ohio... southern West Virginia and
southwest Virginia... 4 to 9 inches in portions of north central
West Virginia.

* Temperatures... around 20.

* Impacts... travel may be difficult at times. Visibilities will
be limited at times.

Precautionary/preparedness actions...

A Winter Weather Advisory for snow means that periods of snow
will cause primarily travel difficulties. Be prepared for snow
covered roads and limited visibilities... and use caution while
driving.

With the colder weather... have your vehicle equipped with
emergency supplies.